createdAt,value
2022-11-02T00:20:24.845Z,14
2022-11-02T00:48:55.902Z,9
2022-11-02T01:17:23.966Z,13
2022-11-02T01:45:56.287Z,10
2022-11-02T02:14:24.522Z,10
2022-11-02T02:42:55.558Z,7
2022-11-02T03:11:24.818Z,6
2022-11-02T03:39:50.309Z,6
2022-11-02T04:08:12.648Z,4
2022-11-02T04:36:36.244Z,5
2022-11-02T05:05:00.827Z,6
2022-11-02T05:33:31.002Z,6
2022-11-02T06:01:41.350Z,6
2022-11-02T06:29:59.940Z,7
2022-11-02T06:58:25.274Z,7
2022-11-02T07:26:50.307Z,6
2022-11-02T07:55:02.986Z,6
2022-11-02T08:23:26.938Z,13
2022-11-02T08:51:45.310Z,8
2022-11-02T09:20:10.195Z,6
2022-11-02T09:48:36.732Z,6
2022-11-02T10:16:59.191Z,4
2022-11-02T10:45:21.377Z,6
2022-11-02T11:42:13.224Z,4
2022-11-02T12:10:37.106Z,4
2022-11-02T12:38:54.550Z,4
2022-11-02T13:07:20.048Z,6
2022-11-02T13:35:47.686Z,6
2022-11-02T14:04:10.698Z,4
2022-11-02T14:32:31.461Z,4
2022-11-02T15:00:52.100Z,4
2022-11-02T15:29:07.521Z,5
2022-11-02T15:57:31.504Z,7
2022-11-02T16:25:46.786Z,11
2022-11-02T16:54:02.417Z,7
2022-11-02T17:22:21.971Z,13
2022-11-02T17:50:42.006Z,15
2022-11-02T18:19:03.306Z,21
2022-11-02T18:47:18.061Z,13
2022-11-02T19:15:42.650Z,36
2022-11-02T19:43:56.667Z,27
2022-11-02T20:12:12.812Z,23
2022-11-02T20:40:41.181Z,15
2022-11-02T21:08:45.049Z,16
2022-11-02T21:37:05.649Z,17
2022-11-02T22:05:22.750Z,16
2022-11-02T22:33:45.027Z,15
2022-11-02T23:02:06.177Z,14
2022-11-02T23:30:25.731Z,13
2022-11-02T23:58:47.938Z,14
